Time;durP1;ratioP1;P1;durP2;ratioP2;P2;SDS_P1;SDS_P2;PMS_P1;PMS_P2;Temp;Humidity;BMP_temperature;BMP_pressure;BME280_temperature;BME280_humidity;BME280_pressure;Samples;Min_cycle;Max_cycle;Signal;HPM_P1;HPM_P2
2023/07/16 00:02:05;;;;;;;11.75;2.92;;;19.00;99.90;;;;;;5094149;28;20552;-88
2023/07/16 00:04:32;;;;;;;9.43;3.25;;;19.00;99.90;;;;;;5059381;28;20032;-88
2023/07/16 00:07:03;;;;;;;6.95;2.60;;;19.00;99.90;;;;;;5092853;28;20482;-88
2023/07/16 00:09:29;;;;;;;8.45;3.25;;;18.90;99.90;;;;;;5093100;28;20026;-88
2023/07/16 00:11:55;;;;;;;8.02;3.20;;;18.90;99.90;;;;;;5059059;28;20115;-88
2023/07/16 00:14:22;;;;;;;6.55;3.03;;;18.90;99.90;;;;;;5075995;28;20078;-88
2023/07/16 00:16:47;;;;;;;9.02;2.90;;;18.80;99.90;;;;;;5059088;28;20016;-88
2023/07/16 00:19:15;;;;;;;8.30;3.15;;;18.80;99.90;;;;;;5058959;28;20121;-88
2023/07/16 00:21:40;;;;;;;9.45;3.58;;;18.80;99.90;;;;;;5092583;28;20031;-89
2023/07/16 00:24:06;;;;;;;13.45;3.78;;;18.70;99.90;;;;;;5076072;28;20024;-89
2023/07/16 00:26:32;;;;;;;9.30;3.33;;;18.70;99.90;;;;;;5075952;28;20179;-89
2023/07/16 00:28:58;;;;;;;8.95;3.42;;;18.70;99.90;;;;;;5059250;28;20080;-89
2023/07/16 00:31:23;;;;;;;9.95;3.40;;;18.70;99.90;;;;;;5076150;28;20036;-89
2023/07/16 00:33:49;;;;;;;10.15;3.38;;;18.70;99.90;;;;;;5076032;28;20024;-89
2023/07/16 00:36:15;;;;;;;9.90;3.60;;;18.80;99.90;;;;;;5075992;28;20031;-88
2023/07/16 00:38:41;;;;;;;7.38;3.35;;;18.80;99.90;;;;;;5059523;28;20036;-90
2023/07/16 00:41:07;;;;;;;9.13;3.60;;;18.80;99.90;;;;;;5093449;28;20051;-90
2023/07/16 00:43:32;;;;;;;9.70;3.92;;;18.80;99.90;;;;;;5076873;28;20032;-89
2023/07/16 00:45:58;;;;;;;9.45;3.78;;;18.70;99.90;;;;;;5076842;28;20409;-91
2023/07/16 00:48:26;;;;;;;8.57;3.40;;;18.70;99.90;;;;;;5059876;28;20381;-90
2023/07/16 00:51:01;;;;;;;10.98;3.90;;;18.80;99.90;;;;;;5093071;28;20558;-90
2023/07/16 00:53:27;;;;;;;7.38;3.22;;;18.80;99.90;;;;;;5092989;28;20393;-89
2023/07/16 00:55:53;;;;;;;10.02;3.53;;;18.70;99.90;;;;;;5076179;28;20035;-90
2023/07/16 00:58:19;;;;;;;7.70;3.10;;;18.70;99.90;;;;;;5076617;28;20032;-90
2023/07/16 01:00:44;;;;;;;9.35;3.70;;;18.70;99.90;;;;;;5075726;28;20111;-90
2023/07/16 01:03:12;;;;;;;9.68;3.95;;;18.70;99.90;;;;;;5077026;28;20098;-90
2023/07/16 01:05:48;;;;;;;15.27;3.45;;;18.70;99.90;;;;;;5097019;28;20012;-90
2023/07/16 01:08:18;;;;;;;7.88;2.78;;;18.70;99.90;;;;;;5096530;28;20031;-89
2023/07/16 01:10:44;;;;;;;11.35;3.13;;;18.60;99.90;;;;;;5080068;28;20119;-89
2023/07/16 01:13:10;;;;;;;8.80;3.45;;;18.60;99.90;;;;;;5079807;28;20116;-90
2023/07/16 01:15:36;;;;;;;9.00;3.25;;;18.60;99.90;;;;;;5096409;28;20034;-89
2023/07/16 01:18:05;;;;;;;13.50;3.10;;;18.60;99.90;;;;;;5062575;28;20024;-89
2023/07/16 01:20:30;;;;;;;9.77;3.42;;;18.60;99.90;;;;;;5096225;28;20472;-90
2023/07/16 01:23:13;;;;;;;9.55;3.38;;;18.60;99.90;;;;;;5063121;28;20027;-89
2023/07/16 01:26:04;;;;;;;10.35;3.22;;;18.50;99.90;;;;;;5096290;28;20066;-90
2023/07/16 01:28:49;;;;;;;8.82;3.08;;;18.50;99.90;;;;;;5096159;28;20069;-88
2023/07/16 01:31:17;;;;;;;12.43;3.10;;;18.50;99.90;;;;;;5095767;28;20087;-88
2023/07/16 01:33:44;;;;;;;9.13;3.13;;;18.40;99.90;;;;;;5079095;28;20104;-93
2023/07/16 01:36:10;;;;;;;8.18;3.00;;;18.40;99.90;;;;;;5080226;28;20352;-93
2023/07/16 01:38:36;;;;;;;8.60;2.90;;;18.30;99.90;;;;;;5079397;28;20024;-91
2023/07/16 01:41:02;;;;;;;13.40;3.72;;;18.20;99.90;;;;;;5079291;28;20043;-93
2023/07/16 01:43:28;;;;;;;10.52;3.05;;;18.20;99.90;;;;;;5079514;28;20051;-93
2023/07/16 01:45:54;;;;;;;12.07;3.13;;;18.20;99.90;;;;;;5078999;28;20039;-88
2023/07/16 01:48:52;;;;;;;11.68;3.03;;;18.10;99.90;;;;;;5095249;28;20016;-88
2023/07/16 01:51:19;;;;;;;12.30;3.45;;;18.10;99.90;;;;;;5062480;28;20055;-90
2023/07/16 01:53:45;;;;;;;10.25;3.38;;;18.10;99.90;;;;;;5095545;28;20027;-89
2023/07/16 01:56:11;;;;;;;10.20;3.55;;;18.00;99.90;;;;;;5095622;28;20024;-91
2023/07/16 01:58:37;;;;;;;6.88;3.08;;;18.00;99.90;;;;;;5079345;28;20032;-90
2023/07/16 02:01:03;;;;;;;12.90;3.53;;;17.90;99.90;;;;;;5062392;28;20040;-89
2023/07/16 02:03:28;;;;;;;10.32;3.53;;;18.00;99.90;;;;;;5078255;28;20055;-88
2023/07/16 02:05:54;;;;;;;11.90;3.45;;;17.90;99.90;;;;;;5078292;28;20031;-87
2023/07/16 02:08:20;;;;;;;12.68;2.83;;;17.90;99.90;;;;;;5078009;28;20433;-87
2023/07/16 02:10:48;;;;;;;14.38;3.58;;;18.00;99.90;;;;;;5078353;28;20040;-88
2023/07/16 02:13:13;;;;;;;10.50;3.45;;;17.90;99.90;;;;;;5094865;28;20115;-88
2023/07/16 02:15:39;;;;;;;13.50;3.65;;;17.90;99.90;;;;;;5078047;28;20085;-88
2023/07/16 02:18:05;;;;;;;9.68;3.50;;;17.90;99.90;;;;;;5095035;28;20051;-88
2023/07/16 02:20:31;;;;;;;10.10;3.15;;;17.80;99.90;;;;;;5095048;28;20107;-89
2023/07/16 02:22:57;;;;;;;7.22;3.20;;;17.80;99.90;;;;;;5061375;28;20043;-88
2023/07/16 02:25:26;;;;;;;7.32;3.75;;;17.90;99.90;;;;;;5061505;28;20050;-88
2023/07/16 02:27:52;;;;;;;11.07;3.15;;;17.80;99.90;;;;;;5077892;28;20107;-88
2023/07/16 02:30:17;;;;;;;10.32;3.30;;;17.90;99.90;;;;;;5077970;28;20464;-88
2023/07/16 02:32:43;;;;;;;11.90;3.40;;;17.80;99.90;;;;;;5094595;28;20024;-88
2023/07/16 02:35:18;;;;;;;11.82;3.70;;;17.80;99.90;;;;;;5077747;28;20441;-88
2023/07/16 02:37:50;;;;;;;11.25;3.38;;;17.80;99.90;;;;;;5077580;28;20492;-88
2023/07/16 02:40:21;;;;;;;7.88;3.03;;;17.80;99.90;;;;;;5060973;28;20032;-87
2023/07/16 02:42:47;;;;;;;9.93;3.22;;;17.70;99.90;;;;;;5061026;28;20020;-87
2023/07/16 02:45:13;;;;;;;9.50;3.17;;;17.70;99.90;;;;;;5077804;28;20534;-88
2023/07/16 02:47:38;;;;;;;13.05;3.17;;;17.70;99.90;;;;;;5061130;28;20453;-88
2023/07/16 02:50:05;;;;;;;10.23;2.72;;;17.70;99.90;;;;;;5077126;28;20024;-87
2023/07/16 02:52:32;;;;;;;9.60;3.03;;;17.70;99.90;;;;;;5090187;28;20075;-88
2023/07/16 02:54:57;;;;;;;9.75;2.95;;;17.70;99.90;;;;;;5086049;28;20046;-86
2023/07/16 02:57:23;;;;;;;9.70;3.25;;;17.70;99.90;;;;;;5102644;28;20012;-87
2023/07/16 02:59:49;;;;;;;11.60;3.30;;;17.70;99.90;;;;;;5085926;28;20008;-85
2023/07/16 03:02:14;;;;;;;9.25;2.90;;;17.70;99.90;;;;;;5102493;28;20048;-88
2023/07/16 03:04:43;;;;;;;10.93;2.88;;;17.80;99.90;;;;;;5102646;28;20032;-87
2023/07/16 03:07:10;;;;;;;9.07;2.53;;;17.80;99.90;;;;;;5100134;28;20028;-88
2023/07/16 03:09:36;;;;;;;12.70;3.47;;;17.80;99.90;;;;;;5082351;28;20031;-89
2023/07/16 03:12:01;;;;;;;8.55;2.92;;;17.80;99.90;;;;;;5061161;28;20024;-89
2023/07/16 03:14:27;;;;;;;13.52;3.47;;;17.80;99.90;;;;;;5077735;28;20385;-90
2023/07/16 03:16:52;;;;;;;8.05;2.88;;;17.80;99.90;;;;;;5077966;28;20032;-90
2023/07/16 03:19:18;;;;;;;11.55;4.20;;;17.80;99.90;;;;;;5094452;28;20031;-90
2023/07/16 03:21:45;;;;;;;15.13;3.67;;;17.70;99.90;;;;;;5060949;28;20119;-89
2023/07/16 03:24:12;;;;;;;11.18;3.70;;;17.70;99.90;;;;;;5078197;28;20024;-89
2023/07/16 03:26:37;;;;;;;9.63;3.40;;;17.70;99.90;;;;;;5093665;28;20020;-88
2023/07/16 03:29:03;;;;;;;11.73;3.42;;;17.70;99.90;;;;;;5060013;28;20027;-88
2023/07/16 03:31:29;;;;;;;10.23;3.80;;;17.70;99.90;;;;;;5060147;28;20357;-87
2023/07/16 03:33:54;;;;;;;6.35;2.85;;;17.70;99.90;;;;;;5093513;28;20450;-88
2023/07/16 03:36:32;;;;;;;8.75;3.40;;;17.70;99.90;;;;;;5076709;28;20469;-88
2023/07/16 03:38:58;;;;;;;11.18;3.90;;;17.70;99.90;;;;;;5076627;28;20538;-88
2023/07/16 03:41:24;;;;;;;9.48;3.38;;;17.60;99.90;;;;;;5076849;28;20024;-87
2023/07/16 03:43:49;;;;;;;9.77;3.50;;;17.60;99.90;;;;;;5060348;28;20024;-88
2023/07/16 03:46:15;;;;;;;11.88;3.70;;;17.60;99.90;;;;;;5077841;28;20027;-88
2023/07/16 03:48:40;;;;;;;8.98;3.38;;;17.60;99.90;;;;;;5061219;28;20020;-88
2023/07/16 03:51:06;;;;;;;8.18;3.78;;;17.60;99.90;;;;;;5088352;28;20034;-87
2023/07/16 03:53:32;;;;;;;10.88;3.83;;;17.60;99.90;;;;;;5083277;28;20103;-87
2023/07/16 03:55:57;;;;;;;11.05;3.55;;;17.60;99.90;;;;;;5096746;28;20058;-89
2023/07/16 03:58:23;;;;;;;9.90;4.10;;;17.60;99.90;;;;;;5077017;28;20016;-91
2023/07/16 04:00:48;;;;;;;15.13;3.47;;;17.60;99.90;;;;;;5060139;28;20035;-90
2023/07/16 04:03:14;;;;;;;8.68;3.97;;;17.50;99.90;;;;;;5093687;28;20177;-91
2023/07/16 04:05:40;;;;;;;12.93;3.30;;;17.50;99.90;;;;;;5076862;28;20024;-90
2023/07/16 04:08:05;;;;;;;10.93;3.15;;;17.60;99.90;;;;;;5060169;28;20519;-91
2023/07/16 04:10:31;;;;;;;9.52;3.35;;;17.60;99.90;;;;;;5060376;28;20498;-90
2023/07/16 04:12:57;;;;;;;7.97;3.28;;;17.50;99.90;;;;;;5060112;28;20025;-91
2023/07/16 04:15:22;;;;;;;12.15;3.33;;;17.50;99.90;;;;;;5059775;28;20036;-89
2023/07/16 04:17:51;;;;;;;7.07;3.42;;;17.50;99.90;;;;;;5059597;28;20357;-89
2023/07/16 04:20:16;;;;;;;11.15;3.25;;;17.50;99.90;;;;;;5076176;28;20085;-89
2023/07/16 04:22:42;;;;;;;8.30;3.45;;;17.50;99.90;;;;;;5059474;28;20370;-89
2023/07/16 04:25:08;;;;;;;9.80;3.28;;;17.50;99.90;;;;;;5076188;28;20024;-89
2023/07/16 04:27:33;;;;;;;9.57;3.78;;;17.50;99.90;;;;;;5059745;28;20358;-88
2023/07/16 04:29:59;;;;;;;12.10;3.83;;;17.50;99.90;;;;;;5059246;28;20023;-88
2023/07/16 04:32:32;;;;;;;10.55;3.95;;;17.50;99.90;;;;;;5077750;28;20032;-90
2023/07/16 04:34:57;;;;;;;9.65;3.67;;;17.40;99.90;;;;;;5072190;28;20024;-90
2023/07/16 04:37:23;;;;;;;10.07;4.00;;;17.40;99.90;;;;;;5069108;28;20024;-91
2023/07/16 04:39:48;;;;;;;11.82;3.75;;;17.40;99.90;;;;;;5063968;28;20042;-91
2023/07/16 04:42:16;;;;;;;8.80;4.05;;;17.40;99.90;;;;;;5063825;28;20073;-91
2023/07/16 04:44:42;;;;;;;10.35;4.20;;;17.40;99.90;;;;;;5080722;28;20548;-91
2023/07/16 04:47:07;;;;;;;8.40;3.95;;;17.30;99.90;;;;;;5097179;28;20063;-91
2023/07/16 04:49:36;;;;;;;10.27;4.82;;;17.30;99.90;;;;;;5080126;28;20468;-89
2023/07/16 04:52:02;;;;;;;15.63;5.28;;;17.30;99.90;;;;;;5079789;28;20017;-88
2023/07/16 04:54:28;;;;;;;12.27;4.68;;;17.30;99.90;;;;;;5096466;28;20020;-88
2023/07/16 04:56:53;;;;;;;12.05;4.18;;;17.40;99.90;;;;;;5062788;28;20478;-88
2023/07/16 04:59:19;;;;;;;13.60;4.65;;;17.40;99.90;;;;;;5080255;28;20032;-88
2023/07/16 05:01:47;;;;;;;10.40;4.30;;;17.40;99.90;;;;;;5075753;28;20044;-90
2023/07/16 05:04:13;;;;;;;8.63;4.43;;;17.30;99.90;;;;;;5094337;28;20065;-90
2023/07/16 05:06:39;;;;;;;11.73;4.97;;;17.30;99.90;;;;;;5095278;28;20115;-90
2023/07/16 05:09:04;;;;;;;13.73;4.38;;;17.30;99.90;;;;;;5059728;28;20029;-90
2023/07/16 05:11:30;;;;;;;11.00;4.78;;;17.30;99.90;;;;;;5066078;28;20059;-89
2023/07/16 05:13:56;;;;;;;10.07;4.20;;;17.30;99.90;;;;;;5076665;28;20024;-90
2023/07/16 05:16:25;;;;;;;13.98;4.97;;;17.20;99.90;;;;;;5076371;28;20109;-90
2023/07/16 05:18:57;;;;;;;14.95;5.47;;;17.20;99.90;;;;;;5075865;28;20020;-91
2023/07/16 05:21:23;;;;;;;8.85;4.35;;;17.20;99.90;;;;;;5059298;28;20041;-88
2023/07/16 05:24:01;;;;;;;9.48;4.63;;;17.20;99.90;;;;;;5058974;28;20076;-88
2023/07/16 05:26:26;;;;;;;11.75;5.00;;;17.20;99.90;;;;;;5075604;28;20350;-88
2023/07/16 05:28:52;;;;;;;14.43;4.72;;;17.20;99.90;;;;;;5093245;28;20108;-87
2023/07/16 05:31:20;;;;;;;11.63;4.72;;;17.30;99.90;;;;;;5077237;28;20113;-87
2023/07/16 05:34:04;;;;;;;11.85;4.72;;;17.30;99.90;;;;;;5103998;28;20107;-88
2023/07/16 05:36:30;;;;;;;11.23;4.47;;;17.30;99.90;;;;;;5112098;28;20024;-88
2023/07/16 05:39:02;;;;;;;16.52;5.00;;;17.40;99.90;;;;;;5109133;28;20054;-94
2023/07/16 05:41:30;;;;;;;11.23;4.97;;;17.30;99.90;;;;;;5096817;28;20024;-93
2023/07/16 05:43:57;;;;;;;10.98;5.20;;;17.40;99.90;;;;;;5079596;28;20028;-93
2023/07/16 05:46:22;;;;;;;13.82;5.40;;;17.40;99.90;;;;;;5096589;28;20020;-93
2023/07/16 05:48:48;;;;;;;16.17;5.47;;;17.40;99.90;;;;;;5095822;28;20015;-93
2023/07/16 05:51:14;;;;;;;11.45;4.80;;;17.40;99.90;;;;;;5079873;28;20020;-91
2023/07/16 05:53:39;;;;;;;10.77;5.47;;;17.40;99.90;;;;;;5080049;28;20032;-92
2023/07/16 05:56:05;;;;;;;17.20;5.57;;;17.40;99.90;;;;;;5080760;28;20057;-89
2023/07/16 05:58:31;;;;;;;14.32;5.95;;;17.30;99.90;;;;;;5081301;28;20036;-89
2023/07/16 06:00:56;;;;;;;13.10;5.15;;;17.40;99.90;;;;;;5100587;28;20354;-89
2023/07/16 06:03:22;;;;;;;17.05;5.55;;;17.40;99.90;;;;;;5095560;28;20067;-89
2023/07/16 06:05:48;;;;;;;14.52;5.25;;;17.50;99.90;;;;;;5103252;28;20091;-88
2023/07/16 06:08:13;;;;;;;14.18;4.95;;;17.50;99.90;;;;;;5103395;28;20119;-88
2023/07/16 06:10:40;;;;;;;27.55;6.30;;;17.50;99.90;;;;;;5103506;28;20012;-89
2023/07/16 06:13:05;;;;;;;14.10;5.38;;;17.50;99.90;;;;;;5085123;28;20028;-90
2023/07/16 06:15:31;;;;;;;11.57;5.43;;;17.50;99.90;;;;;;5079004;28;20085;-90
2023/07/16 06:17:57;;;;;;;15.70;5.63;;;17.60;99.90;;;;;;5078473;28;20027;-90
2023/07/16 06:20:22;;;;;;;11.02;5.07;;;17.60;99.90;;;;;;5075353;28;20036;-89
2023/07/16 06:22:48;;;;;;;10.45;5.45;;;17.70;99.90;;;;;;5067327;28;20032;-90
2023/07/16 06:25:23;;;;;;;18.08;6.97;;;17.70;99.90;;;;;;5058733;28;20052;-90
2023/07/16 06:27:48;;;;;;;14.57;5.10;;;17.80;99.90;;;;;;5061530;28;20120;-90
2023/07/16 06:30:14;;;;;;;15.23;6.25;;;17.70;99.90;;;;;;5079027;28;20066;-90
2023/07/16 06:32:40;;;;;;;15.18;5.57;;;17.80;99.90;;;;;;5095292;28;20035;-90
2023/07/16 06:35:06;;;;;;;15.60;5.57;;;17.80;99.90;;;;;;5078781;28;20499;-92
2023/07/16 06:37:32;;;;;;;11.85;5.90;;;17.90;99.90;;;;;;5095352;28;20032;-90
2023/07/16 06:39:57;;;;;;;18.50;6.55;;;17.90;99.90;;;;;;5078269;28;20024;-90
2023/07/16 06:42:23;;;;;;;16.92;5.78;;;17.90;99.90;;;;;;5094964;28;20118;-90
2023/07/16 06:44:49;;;;;;;10.43;5.43;;;18.00;99.90;;;;;;5095277;28;20355;-87
2023/07/16 06:47:15;;;;;;;18.58;6.55;;;18.00;99.90;;;;;;5077509;28;20376;-87
2023/07/16 06:49:43;;;;;;;14.48;5.65;;;18.10;99.90;;;;;;5077577;28;20023;-88
2023/07/16 06:52:19;;;;;;;13.18;5.68;;;18.10;99.90;;;;;;5094204;28;20093;-88
2023/07/16 06:54:45;;;;;;;13.80;6.10;;;18.20;99.90;;;;;;5091898;28;20023;-86
2023/07/16 06:57:11;;;;;;;13.25;6.03;;;18.20;99.90;;;;;;5057621;28;20013;-87
2023/07/16 06:59:37;;;;;;;11.18;5.70;;;18.20;99.90;;;;;;5062488;28;20029;-88
2023/07/16 07:02:04;;;;;;;15.85;5.90;;;18.30;99.90;;;;;;5091222;28;20052;-88
2023/07/16 07:04:30;;;;;;;17.77;6.13;;;18.30;99.90;;;;;;5074681;28;20140;-88
2023/07/16 07:07:33;;;;;;;10.43;5.43;;;18.40;99.90;;;;;;5074298;28;20074;-87
2023/07/16 07:09:59;;;;;;;12.23;6.03;;;18.40;99.90;;;;;;5074003;28;20068;-87
2023/07/16 07:12:24;;;;;;;15.02;5.95;;;18.50;99.90;;;;;;5074128;28;20025;-87
2023/07/16 07:14:52;;;;;;;14.63;6.15;;;18.50;99.90;;;;;;5073705;28;20029;-88
2023/07/16 07:17:18;;;;;;;12.48;5.75;;;18.50;99.90;;;;;;5073912;28;20032;-88
2023/07/16 07:19:44;;;;;;;12.63;5.85;;;18.60;99.90;;;;;;5091214;28;20485;-93
2023/07/16 07:22:10;;;;;;;14.35;6.10;;;18.60;99.90;;;;;;5090794;28;20024;-93
2023/07/16 07:24:35;;;;;;;12.50;6.10;;;18.70;99.90;;;;;;5061500;28;20472;-92
2023/07/16 07:27:01;;;;;;;16.13;6.00;;;18.70;99.90;;;;;;5078175;28;20024;-92
2023/07/16 07:29:30;;;;;;;22.35;6.63;;;18.70;99.90;;;;;;5077669;28;20027;-92
2023/07/16 07:31:56;;;;;;;13.95;5.40;;;18.80;99.90;;;;;;5095041;28;20187;-93
2023/07/16 07:34:21;;;;;;;15.23;6.28;;;18.90;99.90;;;;;;5061185;28;20047;-93
2023/07/16 07:36:59;;;;;;;17.50;6.68;;;18.90;99.90;;;;;;5077324;28;20443;-88
2023/07/16 07:39:24;;;;;;;11.13;5.97;;;19.00;99.90;;;;;;5061466;28;20055;-88
2023/07/16 07:41:50;;;;;;;12.57;5.45;;;19.00;99.90;;;;;;5077012;28;20074;-88
2023/07/16 07:44:16;;;;;;;13.02;6.35;;;19.10;99.90;;;;;;5059961;28;20029;-87
2023/07/16 07:46:41;;;;;;;14.50;6.30;;;19.10;99.90;;;;;;5060724;28;20082;-89
2023/07/16 07:49:07;;;;;;;16.50;6.13;;;19.10;99.90;;;;;;5059852;28;20036;-88
2023/07/16 07:51:33;;;;;;;13.15;6.07;;;19.20;99.90;;;;;;5095167;28;20024;-92
2023/07/16 07:53:59;;;;;;;17.90;6.15;;;19.20;99.90;;;;;;5060948;28;20032;-91
2023/07/16 07:56:25;;;;;;;11.52;5.97;;;19.30;99.90;;;;;;5077803;28;20028;-92
2023/07/16 07:58:51;;;;;;;13.82;5.20;;;19.30;99.90;;;;;;5077673;28;20036;-92
2023/07/16 08:01:16;;;;;;;13.73;6.03;;;19.40;99.90;;;;;;5077420;28;20016;-92
2023/07/16 08:03:42;;;;;;;13.70;5.90;;;19.40;99.90;;;;;;5060856;28;20052;-92
2023/07/16 08:06:08;;;;;;;13.55;5.72;;;19.50;99.90;;;;;;5077277;28;20028;-92
2023/07/16 08:08:33;;;;;;;18.70;5.47;;;19.50;99.90;;;;;;5063439;28;20035;-93
2023/07/16 08:10:59;;;;;;;9.98;5.70;;;19.60;99.90;;;;;;5064818;28;20119;-92
2023/07/16 08:13:25;;;;;;;14.32;6.25;;;19.60;99.90;;;;;;5080155;28;20024;-92
2023/07/16 08:15:52;;;;;;;17.67;6.18;;;19.60;99.90;;;;;;5099782;28;20021;-93
2023/07/16 08:18:18;;;;;;;13.77;6.32;;;19.70;99.90;;;;;;5086801;28;20096;-93
2023/07/16 08:20:43;;;;;;;14.90;6.30;;;19.70;99.90;;;;;;5086437;28;20055;-93
2023/07/16 08:23:09;;;;;;;15.43;6.20;;;19.80;99.90;;;;;;5084639;28;20032;-91
2023/07/16 08:25:35;;;;;;;13.60;5.88;;;19.80;99.90;;;;;;5079530;28;20058;-89
2023/07/16 08:28:02;;;;;;;10.02;5.30;;;19.90;99.90;;;;;;5073100;28;20046;-89
2023/07/16 08:30:28;;;;;;;14.02;5.60;;;19.90;99.90;;;;;;5089891;28;20017;-89
2023/07/16 08:32:54;;;;;;;12.63;6.03;;;19.90;99.90;;;;;;5072946;28;20033;-90
2023/07/16 08:35:19;;;;;;;16.65;6.47;;;19.90;99.90;;;;;;5072700;28;20024;-87
2023/07/16 08:38:16;;;;;;;14.23;6.18;;;19.90;99.90;;;;;;5073426;28;20107;-89
2023/07/16 08:40:42;;;;;;;15.18;6.20;;;20.00;99.90;;;;;;5073643;28;20454;-89
2023/07/16 08:43:12;;;;;;;11.45;6.10;;;20.00;99.90;;;;;;5072830;28;20020;-89
2023/07/16 08:45:44;;;;;;;14.73;5.70;;;20.00;99.90;;;;;;5073014;28;20029;-90
2023/07/16 08:48:19;;;;;;;15.02;5.97;;;20.10;99.90;;;;;;5073403;28;20037;-92
2023/07/16 08:50:49;;;;;;;13.30;6.20;;;20.10;99.80;;;;;;5073128;28;20039;-90
2023/07/16 08:53:18;;;;;;;13.10;5.80;;;20.20;99.90;;;;;;5089999;28;20036;-90
2023/07/16 08:55:47;;;;;;;15.07;5.80;;;20.30;99.80;;;;;;5081812;28;20135;-93
2023/07/16 08:58:16;;;;;;;15.10;6.40;;;20.40;99.90;;;;;;5093332;28;20112;-87
2023/07/16 09:00:44;;;;;;;15.52;5.88;;;20.40;99.30;;;;;;5055618;28;20122;-87
2023/07/16 09:03:22;;;;;;;11.45;5.93;;;20.40;99.20;;;;;;5072264;28;20417;-87
2023/07/16 09:05:48;;;;;;;11.68;6.10;;;20.40;99.80;;;;;;5090101;28;20028;-86
2023/07/16 09:08:14;;;;;;;15.07;6.15;;;20.50;99.70;;;;;;5072336;28;20025;-86
2023/07/16 09:10:41;;;;;;;13.48;6.05;;;20.50;99.70;;;;;;5072219;28;20027;-87
2023/07/16 09:13:07;;;;;;;13.38;5.53;;;20.50;98.90;;;;;;5072749;28;20365;-87
2023/07/16 09:15:34;;;;;;;14.95;5.53;;;20.50;99.10;;;;;;5072275;28;20036;-87
2023/07/16 09:17:59;;;;;;;11.20;5.68;;;20.60;99.00;;;;;;5071307;28;20086;-87
2023/07/16 09:20:27;;;;;;;13.65;6.45;;;20.60;99.10;;;;;;5072342;28;20032;-87
2023/07/16 09:22:56;;;;;;;12.13;5.80;;;20.60;99.50;;;;;;5072027;28;20039;-87
2023/07/16 09:25:29;;;;;;;11.30;5.28;;;20.80;99.80;;;;;;5082020;28;20081;-90
2023/07/16 09:27:57;;;;;;;11.57;5.20;;;20.90;99.20;;;;;;5100362;28;20021;-89
2023/07/16 09:30:23;;;;;;;14.52;5.68;;;20.90;98.50;;;;;;5099693;28;20079;-90
2023/07/16 09:32:48;;;;;;;10.50;5.35;;;20.90;98.20;;;;;;5068458;28;20032;-91
2023/07/16 09:35:16;;;;;;;14.07;5.80;;;20.90;98.20;;;;;;5076316;28;20029;-91
2023/07/16 09:37:43;;;;;;;9.20;4.90;;;21.00;98.50;;;;;;5093181;28;20101;-91
2023/07/16 09:40:11;;;;;;;12.30;5.22;;;21.00;98.40;;;;;;5060088;28;20060;-89
2023/07/16 09:42:41;;;;;;;11.50;5.03;;;21.00;97.00;;;;;;5093400;28;20024;-91
2023/07/16 09:45:08;;;;;;;;;;;20.90;97.50;;;;;;5093380;28;20021;-90
2023/07/16 09:47:34;;;;;;;13.63;5.60;;;20.80;97.30;;;;;;5077536;28;19906;-91
2023/07/16 09:50:01;;;;;;;10.65;5.63;;;20.70;97.80;;;;;;5075258;28;20024;-87
2023/07/16 09:52:27;;;;;;;15.05;5.78;;;20.70;98.30;;;;;;5092187;28;20020;-88
2023/07/16 09:54:56;;;;;;;16.67;5.75;;;20.70;98.50;;;;;;5058490;28;20422;-88
2023/07/16 09:57:26;;;;;;;9.38;5.13;;;20.80;98.50;;;;;;5074911;28;20062;-86
2023/07/16 09:59:56;;;;;;;9.25;4.80;;;20.80;98.50;;;;;;5074970;28;20028;-87
2023/07/16 10:02:22;;;;;;;10.50;4.93;;;20.80;98.00;;;;;;5085731;27;20086;-87
2023/07/16 10:04:48;;;;;;;12.65;5.47;;;20.80;97.60;;;;;;5074971;28;20396;-92
2023/07/16 10:07:26;;;;;;;11.60;5.05;;;20.80;97.90;;;;;;5058919;28;20017;-89
2023/07/16 10:09:56;;;;;;;9.15;5.05;;;20.80;97.80;;;;;;5076276;28;20062;-91
2023/07/16 10:12:23;;;;;;;;;;;20.90;98.40;;;;;;5075474;28;20090;-90
2023/07/16 10:14:51;;;;;;;9.73;4.68;;;20.90;98.00;;;;;;5075290;28;19911;-88
2023/07/16 10:17:19;;;;;;;12.30;5.43;;;20.90;97.50;;;;;;5058293;28;20109;-93
2023/07/16 10:20:08;;;;;;;15.13;5.20;;;21.00;97.40;;;;;;5074964;28;20039;-90
2023/07/16 10:22:37;;;;;;;15.43;4.97;;;21.10;98.00;;;;;;5074880;28;20023;-87
2023/07/16 10:25:24;;;;;;;11.98;5.55;;;21.20;97.20;;;;;;5074617;28;20477;-87
2023/07/16 10:27:54;;;;;;;11.40;4.63;;;21.20;97.00;;;;;;5073982;28;20469;-87
2023/07/16 10:30:19;;;;;;;12.15;5.07;;;21.20;97.20;;;;;;5057378;28;20039;-87
2023/07/16 10:32:46;;;;;;;13.93;4.90;;;21.20;97.60;;;;;;5057422;28;20025;-87
2023/07/16 10:35:13;;;;;;;10.60;5.75;;;21.20;96.60;;;;;;5073975;28;20079;-87
2023/07/16 10:37:40;;;;;;;9.32;4.25;;;21.20;96.70;;;;;;5074141;28;20016;-86
2023/07/16 10:40:10;;;;;;;11.85;5.03;;;21.20;97.20;;;;;;5057866;28;20037;-90
2023/07/16 10:42:36;;;;;;;12.93;5.30;;;21.20;96.90;;;;;;5074448;28;20050;-89
2023/07/16 10:45:05;;;;;;;12.82;5.20;;;21.20;97.00;;;;;;5074348;28;20469;-89
2023/07/16 10:47:33;;;;;;;11.70;5.25;;;21.20;96.60;;;;;;5074504;28;20016;-92
2023/07/16 10:49:59;;;;;;;9.55;4.70;;;21.20;96.70;;;;;;5075118;28;20029;-90
2023/07/16 10:52:26;;;;;;;11.77;4.97;;;21.20;96.90;;;;;;5059650;28;20071;-93
2023/07/16 10:54:55;;;;;;;13.30;5.63;;;21.20;96.80;;;;;;5075785;28;20107;-87
2023/07/16 10:57:21;;;;;;;14.38;5.20;;;21.20;96.20;;;;;;5081692;28;20031;-88
2023/07/16 10:59:49;;;;;;;13.45;5.00;;;21.20;96.80;;;;;;5093791;28;20069;-88
2023/07/16 11:02:16;;;;;;;12.23;5.35;;;21.20;96.60;;;;;;5077324;28;20392;-87
2023/07/16 11:04:57;;;;;;;11.63;5.25;;;21.20;96.70;;;;;;5094147;28;20536;-88
2023/07/16 11:07:23;;;;;;;9.68;4.50;;;21.30;96.70;;;;;;5077889;28;20051;-88
2023/07/16 11:09:53;;;;;;;9.43;4.28;;;21.30;96.40;;;;;;5094851;28;20139;-88
2023/07/16 11:12:23;;;;;;;8.55;4.40;;;21.30;96.20;;;;;;5103176;27;20028;-87
2023/07/16 11:14:50;;;;;;;16.08;5.35;;;21.30;96.40;;;;;;5101337;28;20096;-88
2023/07/16 11:17:16;;;;;;;11.68;4.57;;;21.30;96.30;;;;;;5102403;28;20049;-87
2023/07/16 11:19:46;;;;;;;7.43;4.35;;;21.20;96.20;;;;;;5119325;28;20008;-87
2023/07/16 11:22:13;;;;;;;11.50;4.75;;;21.20;96.40;;;;;;5119396;28;20060;-86
2023/07/16 11:24:47;;;;;;;10.85;5.25;;;21.20;96.60;;;;;;5102391;28;20012;-86
2023/07/16 11:27:31;;;;;;;12.85;5.20;;;21.20;96.90;;;;;;5102318;28;20012;-87
2023/07/16 11:29:58;;;;;;;9.30;5.25;;;21.20;96.80;;;;;;5098827;28;20055;-88
2023/07/16 11:32:35;;;;;;;10.20;5.03;;;21.20;96.50;;;;;;5077463;28;20438;-88
2023/07/16 11:35:08;;;;;;;12.23;4.97;;;21.20;96.70;;;;;;5095675;28;20103;-87
2023/07/16 11:37:35;;;;;;;12.88;4.15;;;21.20;96.90;;;;;;5096752;28;20028;-87
2023/07/16 11:40:06;;;;;;;11.57;4.40;;;21.20;96.80;;;;;;5095611;28;20024;-86
2023/07/16 11:42:36;;;;;;;10.57;4.50;;;21.30;96.50;;;;;;5112796;28;20026;-87
2023/07/16 11:45:03;;;;;;;8.75;4.72;;;21.30;96.00;;;;;;5093177;28;20058;-87
2023/07/16 11:47:29;;;;;;;11.23;4.53;;;21.30;96.10;;;;;;5075558;28;20492;-87
2023/07/16 11:49:56;;;;;;;8.20;4.28;;;21.30;96.30;;;;;;5094812;28;20453;-89
2023/07/16 11:52:27;;;;;;;13.38;5.13;;;21.30;96.30;;;;;;5077287;28;20035;-89
2023/07/16 11:54:53;;;;;;;9.13;4.93;;;21.20;96.50;;;;;;5093469;28;20373;-88
2023/07/16 11:57:31;;;;;;;14.23;4.45;;;21.20;96.90;;;;;;5093437;28;20020;-89
2023/07/16 11:59:57;;;;;;;10.30;4.65;;;21.20;97.10;;;;;;5076801;28;20170;-88
2023/07/16 12:02:25;;;;;;;12.50;5.90;;;21.20;97.40;;;;;;5093700;28;20075;-91
2023/07/16 12:04:50;;;;;;;11.70;4.50;;;21.20;97.40;;;;;;5079380;28;20024;-91
2023/07/16 12:07:39;;;;;;;10.95;4.72;;;21.20;97.80;;;;;;5076947;28;20093;-92
2023/07/16 12:10:07;;;;;;;11.85;5.22;;;21.30;97.60;;;;;;5073526;28;20477;-92
2023/07/16 12:12:33;;;;;;;11.35;4.82;;;21.30;97.30;;;;;;5076682;28;20280;-93
2023/07/16 12:15:00;;;;;;;19.05;5.43;;;21.40;97.30;;;;;;5093604;28;20028;-93
2023/07/16 12:17:26;;;;;;;9.57;5.28;;;21.40;97.40;;;;;;5079556;28;20020;-93
2023/07/16 12:19:52;;;;;;;11.43;5.20;;;21.40;97.30;;;;;;5057739;28;20052;-87
2023/07/16 12:22:18;;;;;;;12.55;4.90;;;21.40;97.50;;;;;;5076515;28;20020;-88
2023/07/16 12:24:44;;;;;;;9.85;4.50;;;21.40;97.50;;;;;;5076389;28;20051;-87
2023/07/16 12:27:10;;;;;;;10.73;4.57;;;21.40;97.70;;;;;;5092692;28;20052;-87
2023/07/16 12:29:36;;;;;;;9.73;4.70;;;21.40;97.90;;;;;;5076352;28;20031;-87
2023/07/16 12:32:09;;;;;;;11.00;5.00;;;21.50;98.00;;;;;;5075933;28;20034;-88
2023/07/16 12:34:35;;;;;;;9.60;4.97;;;21.50;97.90;;;;;;5076131;28;20029;-86
2023/07/16 12:37:02;;;;;;;11.07;4.90;;;21.60;98.10;;;;;;5076866;28;20051;-91
2023/07/16 12:39:28;;;;;;;10.65;5.13;;;21.70;98.30;;;;;;5076829;28;20085;-88
2023/07/16 12:41:54;;;;;;;11.25;5.20;;;21.80;97.80;;;;;;5092626;28;20034;-85
2023/07/16 12:44:28;;;;;;;10.75;4.95;;;21.90;97.60;;;;;;5093775;28;20099;-91